sensor_id;sensor_type;location;lat;lon;timestamp;temperature;humidity
25300;DHT22;13241;51.208;4.432;2022-07-24T00:00:32;21.10;99.90
25300;DHT22;13241;51.208;4.432;2022-07-24T00:02:58;21.10;99.90
25300;DHT22;13241;51.208;4.432;2022-07-24T00:05:25;21.10;99.90
25300;DHT22;13241;51.208;4.432;2022-07-24T00:07:52;21.10;99.90
25300;DHT22;13241;51.208;4.432;2022-07-24T00:10:19;21.10;99.90
25300;DHT22;13241;51.208;4.432;2022-07-24T00:12:46;21.10;99.90
25300;DHT22;13241;51.208;4.432;2022-07-24T00:15:13;21.10;99.90
25300;DHT22;13241;51.208;4.432;2022-07-24T00:17:41;21.10;99.90
25300;DHT22;13241;51.208;4.432;2022-07-24T00:20:08;21.00;99.90
25300;DHT22;13241;51.208;4.432;2022-07-24T00:22:36;21.00;99.90
25300;DHT22;13241;51.208;4.432;2022-07-24T00:25:03;21.00;99.90
25300;DHT22;13241;51.208;4.432;2022-07-24T00:27:30;20.90;99.90
25300;DHT22;13241;51.208;4.432;2022-07-24T00:29:57;20.90;99.90
25300;DHT22;13241;51.208;4.432;2022-07-24T00:32:24;20.80;99.90
25300;DHT22;13241;51.208;4.432;2022-07-24T00:34:51;20.80;99.90
25300;DHT22;13241;51.208;4.432;2022-07-24T00:37:19;20.80;99.90
25300;DHT22;13241;51.208;4.432;2022-07-24T00:39:46;20.80;99.90
25300;DHT22;13241;51.208;4.432;2022-07-24T00:42:14;20.80;99.90
25300;DHT22;13241;51.208;4.432;2022-07-24T00:44:41;20.70;99.90
25300;DHT22;13241;51.208;4.432;2022-07-24T00:47:08;20.70;99.90
25300;DHT22;13241;51.208;4.432;2022-07-24T00:49:35;20.70;99.90
25300;DHT22;13241;51.208;4.432;2022-07-24T00:52:02;20.70;99.90
25300;DHT22;13241;51.208;4.432;2022-07-24T00:54:29;20.70;99.90
25300;DHT22;13241;51.208;4.432;2022-07-24T00:56:56;20.70;99.90
25300;DHT22;13241;51.208;4.432;2022-07-24T00:59:23;20.70;99.90
25300;DHT22;13241;51.208;4.432;2022-07-24T01:01:50;20.70;99.90
25300;DHT22;13241;51.208;4.432;2022-07-24T01:04:18;20.60;99.90
25300;DHT22;13241;51.208;4.432;2022-07-24T01:06:47;20.60;99.90
25300;DHT22;13241;51.208;4.432;2022-07-24T01:09:15;20.60;99.90
25300;DHT22;13241;51.208;4.432;2022-07-24T01:11:42;20.60;99.90
25300;DHT22;13241;51.208;4.432;2022-07-24T01:14:10;20.60;99.90
25300;DHT22;13241;51.208;4.432;2022-07-24T01:16:38;20.60;99.90
25300;DHT22;13241;51.208;4.432;2022-07-24T01:19:05;20.60;99.90
25300;DHT22;13241;51.208;4.432;2022-07-24T01:21:32;20.50;99.90
25300;DHT22;13241;51.208;4.432;2022-07-24T01:23:59;20.50;99.90
25300;DHT22;13241;51.208;4.432;2022-07-24T01:26:26;20.50;99.90
25300;DHT22;13241;51.208;4.432;2022-07-24T01:28:53;20.30;99.90
25300;DHT22;13241;51.208;4.432;2022-07-24T01:31:20;20.40;99.90
25300;DHT22;13241;51.208;4.432;2022-07-24T01:33:47;20.40;99.90
25300;DHT22;13241;51.208;4.432;2022-07-24T01:36:14;20.40;99.90
25300;DHT22;13241;51.208;4.432;2022-07-24T01:38:41;20.40;99.90
25300;DHT22;13241;51.208;4.432;2022-07-24T01:41:08;20.40;99.90
25300;DHT22;13241;51.208;4.432;2022-07-24T01:43:35;20.30;99.90
25300;DHT22;13241;51.208;4.432;2022-07-24T01:46:02;20.30;99.90
25300;DHT22;13241;51.208;4.432;2022-07-24T01:48:29;20.30;99.90
25300;DHT22;13241;51.208;4.432;2022-07-24T01:50:57;20.30;99.90
25300;DHT22;13241;51.208;4.432;2022-07-24T01:53:24;20.30;99.90
25300;DHT22;13241;51.208;4.432;2022-07-24T01:55:52;20.30;99.90
25300;DHT22;13241;51.208;4.432;2022-07-24T01:58:19;20.30;99.90
25300;DHT22;13241;51.208;4.432;2022-07-24T02:00:49;20.20;99.90
25300;DHT22;13241;51.208;4.432;2022-07-24T02:03:16;20.20;99.90
25300;DHT22;13241;51.208;4.432;2022-07-24T02:05:46;20.20;99.90
25300;DHT22;13241;51.208;4.432;2022-07-24T02:08:13;20.20;99.90
25300;DHT22;13241;51.208;4.432;2022-07-24T02:10:39;20.10;99.90
25300;DHT22;13241;51.208;4.432;2022-07-24T02:13:07;20.10;99.90
25300;DHT22;13241;51.208;4.432;2022-07-24T02:15:34;20.10;99.90
25300;DHT22;13241;51.208;4.432;2022-07-24T02:18:02;20.10;99.90
25300;DHT22;13241;51.208;4.432;2022-07-24T02:20:29;20.10;99.90
25300;DHT22;13241;51.208;4.432;2022-07-24T02:22:56;20.10;99.90
25300;DHT22;13241;51.208;4.432;2022-07-24T02:25:23;20.00;99.90
25300;DHT22;13241;51.208;4.432;2022-07-24T02:27:50;20.00;99.90
25300;DHT22;13241;51.208;4.432;2022-07-24T02:30:20;20.00;99.90
25300;DHT22;13241;51.208;4.432;2022-07-24T02:32:47;20.00;99.90
25300;DHT22;13241;51.208;4.432;2022-07-24T02:35:14;20.00;99.90
25300;DHT22;13241;51.208;4.432;2022-07-24T02:37:43;19.90;99.90
25300;DHT22;13241;51.208;4.432;2022-07-24T02:40:12;19.80;99.90
25300;DHT22;13241;51.208;4.432;2022-07-24T02:42:39;19.80;99.90
25300;DHT22;13241;51.208;4.432;2022-07-24T02:45:07;19.70;99.90
25300;DHT22;13241;51.208;4.432;2022-07-24T02:47:35;19.70;99.90
25300;DHT22;13241;51.208;4.432;2022-07-24T02:50:03;19.60;99.90
25300;DHT22;13241;51.208;4.432;2022-07-24T02:52:30;19.60;99.90
25300;DHT22;13241;51.208;4.432;2022-07-24T02:54:57;19.60;99.90
25300;DHT22;13241;51.208;4.432;2022-07-24T02:57:24;19.60;99.90
25300;DHT22;13241;51.208;4.432;2022-07-24T02:59:51;19.50;99.90
25300;DHT22;13241;51.208;4.432;2022-07-24T03:02:19;19.50;99.90
25300;DHT22;13241;51.208;4.432;2022-07-24T03:04:47;19.40;99.90
25300;DHT22;13241;51.208;4.432;2022-07-24T03:07:14;19.40;99.90
25300;DHT22;13241;51.208;4.432;2022-07-24T03:09:41;19.40;99.90
25300;DHT22;13241;51.208;4.432;2022-07-24T03:12:08;19.40;99.90
25300;DHT22;13241;51.208;4.432;2022-07-24T03:14:35;19.40;99.90
25300;DHT22;13241;51.208;4.432;2022-07-24T03:17:04;19.40;99.90
25300;DHT22;13241;51.208;4.432;2022-07-24T03:19:31;19.40;99.90
25300;DHT22;13241;51.208;4.432;2022-07-24T03:21:58;19.40;99.90
25300;DHT22;13241;51.208;4.432;2022-07-24T03:24:25;19.30;99.90
25300;DHT22;13241;51.208;4.432;2022-07-24T03:26:52;19.40;99.90
25300;DHT22;13241;51.208;4.432;2022-07-24T03:29:19;19.30;99.90
25300;DHT22;13241;51.208;4.432;2022-07-24T03:31:46;19.30;99.90
25300;DHT22;13241;51.208;4.432;2022-07-24T03:34:13;19.30;99.90
25300;DHT22;13241;51.208;4.432;2022-07-24T03:36:40;19.30;99.90
25300;DHT22;13241;51.208;4.432;2022-07-24T03:39:07;19.20;99.90
25300;DHT22;13241;51.208;4.432;2022-07-24T03:41:35;19.20;99.90
25300;DHT22;13241;51.208;4.432;2022-07-24T03:44:03;19.30;99.90
25300;DHT22;13241;51.208;4.432;2022-07-24T03:46:30;19.10;99.90
25300;DHT22;13241;51.208;4.432;2022-07-24T03:48:57;19.20;99.90
25300;DHT22;13241;51.208;4.432;2022-07-24T03:51:25;19.10;99.90
25300;DHT22;13241;51.208;4.432;2022-07-24T03:53:53;19.00;99.90
25300;DHT22;13241;51.208;4.432;2022-07-24T03:56:21;19.10;99.90
25300;DHT22;13241;51.208;4.432;2022-07-24T03:58:52;19.10;99.90
25300;DHT22;13241;51.208;4.432;2022-07-24T04:01:21;18.90;99.90
25300;DHT22;13241;51.208;4.432;2022-07-24T04:03:48;19.00;99.90
25300;DHT22;13241;51.208;4.432;2022-07-24T04:06:16;19.00;99.90
25300;DHT22;13241;51.208;4.432;2022-07-24T04:08:42;19.00;99.90
25300;DHT22;13241;51.208;4.432;2022-07-24T04:11:09;18.90;99.90
25300;DHT22;13241;51.208;4.432;2022-07-24T04:13:36;18.90;99.90
25300;DHT22;13241;51.208;4.432;2022-07-24T04:16:09;18.90;99.90
25300;DHT22;13241;51.208;4.432;2022-07-24T04:18:36;18.90;99.90
25300;DHT22;13241;51.208;4.432;2022-07-24T04:21:03;18.90;99.90
25300;DHT22;13241;51.208;4.432;2022-07-24T04:23:30;19.00;99.90
25300;DHT22;13241;51.208;4.432;2022-07-24T04:25:57;18.90;99.90
25300;DHT22;13241;51.208;4.432;2022-07-24T04:28:24;19.10;99.90
25300;DHT22;13241;51.208;4.432;2022-07-24T04:30:51;18.80;99.90
25300;DHT22;13241;51.208;4.432;2022-07-24T04:33:18;18.80;99.90
25300;DHT22;13241;51.208;4.432;2022-07-24T04:35:45;18.90;99.90
25300;DHT22;13241;51.208;4.432;2022-07-24T04:38:11;18.90;99.90
25300;DHT22;13241;51.208;4.432;2022-07-24T04:40:39;18.90;99.90
25300;DHT22;13241;51.208;4.432;2022-07-24T04:43:05;18.90;99.90
25300;DHT22;13241;51.208;4.432;2022-07-24T04:45:33;19.00;99.90
25300;DHT22;13241;51.208;4.432;2022-07-24T04:48:01;19.00;99.90
25300;DHT22;13241;51.208;4.432;2022-07-24T04:50:29;19.10;99.90
25300;DHT22;13241;51.208;4.432;2022-07-24T04:52:56;19.00;99.90
25300;DHT22;13241;51.208;4.432;2022-07-24T04:55:23;19.00;99.90
25300;DHT22;13241;51.208;4.432;2022-07-24T04:57:50;18.90;99.90
25300;DHT22;13241;51.208;4.432;2022-07-24T05:00:16;19.10;99.90
25300;DHT22;13241;51.208;4.432;2022-07-24T05:02:43;19.20;99.90
25300;DHT22;13241;51.208;4.432;2022-07-24T05:05:11;19.20;99.90
25300;DHT22;13241;51.208;4.432;2022-07-24T05:07:38;19.30;99.90
25300;DHT22;13241;51.208;4.432;2022-07-24T05:10:05;19.40;99.90
25300;DHT22;13241;51.208;4.432;2022-07-24T05:12:32;19.50;99.90
25300;DHT22;13241;51.208;4.432;2022-07-24T05:14:59;19.50;99.90
25300;DHT22;13241;51.208;4.432;2022-07-24T05:17:26;19.70;99.90
25300;DHT22;13241;51.208;4.432;2022-07-24T05:19:53;19.80;99.90
25300;DHT22;13241;51.208;4.432;2022-07-24T05:22:20;19.80;99.90
25300;DHT22;13241;51.208;4.432;2022-07-24T05:24:46;19.90;99.90
25300;DHT22;13241;51.208;4.432;2022-07-24T05:27:13;20.00;99.90
25300;DHT22;13241;51.208;4.432;2022-07-24T05:29:40;20.10;99.90
25300;DHT22;13241;51.208;4.432;2022-07-24T05:32:08;20.30;99.90
25300;DHT22;13241;51.208;4.432;2022-07-24T05:34:35;20.40;99.90
25300;DHT22;13241;51.208;4.432;2022-07-24T05:37:07;20.40;99.90
25300;DHT22;13241;51.208;4.432;2022-07-24T05:39:34;20.60;99.90
25300;DHT22;13241;51.208;4.432;2022-07-24T05:42:01;20.80;99.90
25300;DHT22;13241;51.208;4.432;2022-07-24T05:44:27;21.20;99.90
25300;DHT22;13241;51.208;4.432;2022-07-24T05:46:54;21.40;99.90
25300;DHT22;13241;51.208;4.432;2022-07-24T05:49:21;21.60;99.90
25300;DHT22;13241;51.208;4.432;2022-07-24T05:51:48;21.60;99.90
25300;DHT22;13241;51.208;4.432;2022-07-24T05:54:15;21.60;99.90
25300;DHT22;13241;51.208;4.432;2022-07-24T05:56:42;21.60;99.90
25300;DHT22;13241;51.208;4.432;2022-07-24T05:59:09;21.70;99.90
25300;DHT22;13241;51.208;4.432;2022-07-24T06:01:36;21.70;99.90
25300;DHT22;13241;51.208;4.432;2022-07-24T06:04:03;21.70;99.90
25300;DHT22;13241;51.208;4.432;2022-07-24T06:06:30;21.80;99.90
25300;DHT22;13241;51.208;4.432;2022-07-24T06:08:57;21.90;99.90
25300;DHT22;13241;51.208;4.432;2022-07-24T06:11:24;21.90;99.90
25300;DHT22;13241;51.208;4.432;2022-07-24T06:13:51;22.20;99.90
25300;DHT22;13241;51.208;4.432;2022-07-24T06:16:19;22.10;99.90
25300;DHT22;13241;51.208;4.432;2022-07-24T06:18:46;22.30;99.90
25300;DHT22;13241;51.208;4.432;2022-07-24T06:21:13;22.40;99.90
25300;DHT22;13241;51.208;4.432;2022-07-24T06:23:40;22.50;99.90
25300;DHT22;13241;51.208;4.432;2022-07-24T06:26:06;22.80;99.90
25300;DHT22;13241;51.208;4.432;2022-07-24T06:28:33;23.00;99.90
25300;DHT22;13241;51.208;4.432;2022-07-24T06:31:00;23.20;99.90
25300;DHT22;13241;51.208;4.432;2022-07-24T06:33:29;23.50;99.90
25300;DHT22;13241;51.208;4.432;2022-07-24T06:35:56;23.60;99.90
25300;DHT22;13241;51.208;4.432;2022-07-24T06:38:23;23.90;99.90
25300;DHT22;13241;51.208;4.432;2022-07-24T06:40:51;24.00;99.90
25300;DHT22;13241;51.208;4.432;2022-07-24T06:43:18;24.20;99.90
25300;DHT22;13241;51.208;4.432;2022-07-24T06:45:46;24.40;99.90
25300;DHT22;13241;51.208;4.432;2022-07-24T06:48:13;24.60;99.90
25300;DHT22;13241;51.208;4.432;2022-07-24T06:50:40;24.60;99.90
25300;DHT22;13241;51.208;4.432;2022-07-24T06:53:07;24.50;99.90
25300;DHT22;13241;51.208;4.432;2022-07-24T06:55:34;24.50;99.90
25300;DHT22;13241;51.208;4.432;2022-07-24T06:58:01;24.50;99.90
25300;DHT22;13241;51.208;4.432;2022-07-24T07:00:28;24.60;99.90
25300;DHT22;13241;51.208;4.432;2022-07-24T07:02:54;24.70;99.90
25300;DHT22;13241;51.208;4.432;2022-07-24T07:05:21;24.50;99.90
25300;DHT22;13241;51.208;4.432;2022-07-24T07:07:50;24.40;99.90
25300;DHT22;13241;51.208;4.432;2022-07-24T07:10:17;24.10;99.90
25300;DHT22;13241;51.208;4.432;2022-07-24T07:12:44;24.10;99.90
25300;DHT22;13241;51.208;4.432;2022-07-24T07:15:11;24.10;99.90
25300;DHT22;13241;51.208;4.432;2022-07-24T07:17:40;24.30;99.90
25300;DHT22;13241;51.208;4.432;2022-07-24T07:20:08;24.40;99.90
25300;DHT22;13241;51.208;4.432;2022-07-24T07:22:35;24.70;99.90
25300;DHT22;13241;51.208;4.432;2022-07-24T07:25:03;24.90;99.90
25300;DHT22;13241;51.208;4.432;2022-07-24T07:27:30;25.20;99.90
25300;DHT22;13241;51.208;4.432;2022-07-24T07:29:57;25.40;99.90
25300;DHT22;13241;51.208;4.432;2022-07-24T07:32:24;25.80;99.90
25300;DHT22;13241;51.208;4.432;2022-07-24T07:34:51;25.80;99.90
25300;DHT22;13241;51.208;4.432;2022-07-24T07:37:19;25.90;99.90
25300;DHT22;13241;51.208;4.432;2022-07-24T07:39:46;26.10;99.90
25300;DHT22;13241;51.208;4.432;2022-07-24T07:42:13;25.90;99.90
25300;DHT22;13241;51.208;4.432;2022-07-24T07:44:41;25.90;99.90
25300;DHT22;13241;51.208;4.432;2022-07-24T07:47:08;26.00;99.90
25300;DHT22;13241;51.208;4.432;2022-07-24T07:49:35;26.10;99.90
25300;DHT22;13241;51.208;4.432;2022-07-24T07:52:02;26.20;99.90
25300;DHT22;13241;51.208;4.432;2022-07-24T07:54:30;26.30;99.90
25300;DHT22;13241;51.208;4.432;2022-07-24T07:56:56;26.30;99.90
25300;DHT22;13241;51.208;4.432;2022-07-24T07:59:23;26.40;99.90
25300;DHT22;13241;51.208;4.432;2022-07-24T08:01:50;26.40;99.90
25300;DHT22;13241;51.208;4.432;2022-07-24T08:04:17;26.60;99.90
25300;DHT22;13241;51.208;4.432;2022-07-24T08:06:44;26.70;99.90
25300;DHT22;13241;51.208;4.432;2022-07-24T08:09:13;26.80;99.90
25300;DHT22;13241;51.208;4.432;2022-07-24T08:11:40;26.90;99.90
25300;DHT22;13241;51.208;4.432;2022-07-24T08:14:07;27.00;99.90
25300;DHT22;13241;51.208;4.432;2022-07-24T08:16:33;27.20;99.90
25300;DHT22;13241;51.208;4.432;2022-07-24T08:19:00;27.30;99.90
25300;DHT22;13241;51.208;4.432;2022-07-24T08:21:27;27.50;99.90
25300;DHT22;13241;51.208;4.432;2022-07-24T08:23:54;27.60;99.90
25300;DHT22;13241;51.208;4.432;2022-07-24T08:26:21;27.70;99.90
25300;DHT22;13241;51.208;4.432;2022-07-24T08:28:48;27.70;99.90
25300;DHT22;13241;51.208;4.432;2022-07-24T08:31:15;27.70;99.90
25300;DHT22;13241;51.208;4.432;2022-07-24T08:33:42;27.80;99.90
25300;DHT22;13241;51.208;4.432;2022-07-24T08:36:10;28.00;99.90
25300;DHT22;13241;51.208;4.432;2022-07-24T08:38:37;28.10;99.90
25300;DHT22;13241;51.208;4.432;2022-07-24T08:41:05;28.10;99.90
25300;DHT22;13241;51.208;4.432;2022-07-24T08:43:32;28.20;99.90
25300;DHT22;13241;51.208;4.432;2022-07-24T08:46:00;28.20;99.90
25300;DHT22;13241;51.208;4.432;2022-07-24T08:48:27;28.30;99.90
25300;DHT22;13241;51.208;4.432;2022-07-24T08:50:54;28.40;99.90
25300;DHT22;13241;51.208;4.432;2022-07-24T08:53:22;28.50;99.90
25300;DHT22;13241;51.208;4.432;2022-07-24T08:55:50;28.60;99.90
25300;DHT22;13241;51.208;4.432;2022-07-24T08:58:17;28.70;99.90
25300;DHT22;13241;51.208;4.432;2022-07-24T09:00:44;28.50;99.90
25300;DHT22;13241;51.208;4.432;2022-07-24T09:03:11;28.30;99.90
25300;DHT22;13241;51.208;4.432;2022-07-24T09:05:53;28.30;99.90
25300;DHT22;13241;51.208;4.432;2022-07-24T09:08:20;28.60;99.90
25300;DHT22;13241;51.208;4.432;2022-07-24T09:10:57;28.70;99.90
25300;DHT22;13241;51.208;4.432;2022-07-24T09:13:32;28.80;99.90
25300;DHT22;13241;51.208;4.432;2022-07-24T09:16:23;28.90;99.90
25300;DHT22;13241;51.208;4.432;2022-07-24T09:19:08;28.90;99.90
25300;DHT22;13241;51.208;4.432;2022-07-24T09:21:40;28.90;99.90
25300;DHT22;13241;51.208;4.432;2022-07-24T09:24:14;29.00;99.90
25300;DHT22;13241;51.208;4.432;2022-07-24T09:26:52;29.00;99.90
25300;DHT22;13241;51.208;4.432;2022-07-24T09:29:21;29.00;99.90
25300;DHT22;13241;51.208;4.432;2022-07-24T09:32:00;29.00;99.90
25300;DHT22;13241;51.208;4.432;2022-07-24T09:34:29;28.90;99.90
25300;DHT22;13241;51.208;4.432;2022-07-24T09:37:01;28.90;99.90
25300;DHT22;13241;51.208;4.432;2022-07-24T09:39:29;29.00;99.90
25300;DHT22;13241;51.208;4.432;2022-07-24T09:41:59;29.10;99.90
25300;DHT22;13241;51.208;4.432;2022-07-24T09:44:26;28.80;99.90
25300;DHT22;13241;51.208;4.432;2022-07-24T09:47:05;28.80;99.90
25300;DHT22;13241;51.208;4.432;2022-07-24T09:49:34;28.90;99.90
25300;DHT22;13241;51.208;4.432;2022-07-24T09:54:37;29.20;99.90
25300;DHT22;13241;51.208;4.432;2022-07-24T09:57:23;29.30;99.90
25300;DHT22;13241;51.208;4.432;2022-07-24T10:00:02;29.40;99.90
25300;DHT22;13241;51.208;4.432;2022-07-24T10:02:32;29.50;99.90
25300;DHT22;13241;51.208;4.432;2022-07-24T10:05:01;29.70;99.90
25300;DHT22;13241;51.208;4.432;2022-07-24T10:07:29;29.80;99.90
25300;DHT22;13241;51.208;4.432;2022-07-24T10:09:58;29.80;99.90
25300;DHT22;13241;51.208;4.432;2022-07-24T10:12:31;29.80;99.90
25300;DHT22;13241;51.208;4.432;2022-07-24T10:14:59;29.80;99.90
25300;DHT22;13241;51.208;4.432;2022-07-24T10:17:43;29.90;99.90
25300;DHT22;13241;51.208;4.432;2022-07-24T10:20:35;29.90;99.90
25300;DHT22;13241;51.208;4.432;2022-07-24T10:26:00;30.10;99.90
25300;DHT22;13241;51.208;4.432;2022-07-24T10:28:38;30.00;99.90
25300;DHT22;13241;51.208;4.432;2022-07-24T10:31:12;29.90;99.90
25300;DHT22;13241;51.208;4.432;2022-07-24T10:33:41;29.80;99.90
25300;DHT22;13241;51.208;4.432;2022-07-24T10:36:16;29.90;99.90
25300;DHT22;13241;51.208;4.432;2022-07-24T10:38:51;29.70;99.90
25300;DHT22;13241;51.208;4.432;2022-07-24T10:41:25;29.80;99.90
25300;DHT22;13241;51.208;4.432;2022-07-24T10:44:12;29.90;99.90
25300;DHT22;13241;51.208;4.432;2022-07-24T10:47:00;30.00;99.90
25300;DHT22;13241;51.208;4.432;2022-07-24T10:52:21;29.90;99.90
25300;DHT22;13241;51.208;4.432;2022-07-24T10:58:12;29.90;99.90
25300;DHT22;13241;51.208;4.432;2022-07-24T11:00:46;29.90;99.90
25300;DHT22;13241;51.208;4.432;2022-07-24T11:03:29;30.00;99.90
25300;DHT22;13241;51.208;4.432;2022-07-24T11:06:05;30.10;99.90
25300;DHT22;13241;51.208;4.432;2022-07-24T11:08:38;30.10;99.90
25300;DHT22;13241;51.208;4.432;2022-07-24T11:11:16;30.20;99.90
25300;DHT22;13241;51.208;4.432;2022-07-24T11:13:50;30.20;99.90
25300;DHT22;13241;51.208;4.432;2022-07-24T11:16:20;30.30;99.90
25300;DHT22;13241;51.208;4.432;2022-07-24T11:21:41;30.40;99.90
25300;DHT22;13241;51.208;4.432;2022-07-24T11:24:15;30.40;99.90
25300;DHT22;13241;51.208;4.432;2022-07-24T11:26:53;30.20;99.90
25300;DHT22;13241;51.208;4.432;2022-07-24T11:29:23;30.10;99.90
25300;DHT22;13241;51.208;4.432;2022-07-24T11:31:55;30.10;99.90
25300;DHT22;13241;51.208;4.432;2022-07-24T11:34:23;30.20;99.90
25300;DHT22;13241;51.208;4.432;2022-07-24T11:36:51;30.30;99.90
25300;DHT22;13241;51.208;4.432;2022-07-24T11:39:20;30.40;99.90
25300;DHT22;13241;51.208;4.432;2022-07-24T11:42:15;30.50;99.90
25300;DHT22;13241;51.208;4.432;2022-07-24T11:44:47;30.50;99.90
25300;DHT22;13241;51.208;4.432;2022-07-24T11:47:23;30.40;99.90
25300;DHT22;13241;51.208;4.432;2022-07-24T11:49:53;30.50;99.90
25300;DHT22;13241;51.208;4.432;2022-07-24T11:52:22;30.50;99.90
25300;DHT22;13241;51.208;4.432;2022-07-24T11:54:51;30.50;99.50
25300;DHT22;13241;51.208;4.432;2022-07-24T11:57:24;30.60;99.70
25300;DHT22;13241;51.208;4.432;2022-07-24T12:00:14;30.70;99.60
25300;DHT22;13241;51.208;4.432;2022-07-24T12:03:02;30.80;99.40
25300;DHT22;13241;51.208;4.432;2022-07-24T12:05:35;30.90;99.40
25300;DHT22;13241;51.208;4.432;2022-07-24T12:08:04;30.90;99.20
25300;DHT22;13241;51.208;4.432;2022-07-24T12:10:41;30.80;99.20
25300;DHT22;13241;51.208;4.432;2022-07-24T12:13:08;30.80;99.10
25300;DHT22;13241;51.208;4.432;2022-07-24T12:15:38;30.90;99.10
25300;DHT22;13241;51.208;4.432;2022-07-24T12:18:06;30.90;99.00
25300;DHT22;13241;51.208;4.432;2022-07-24T12:20:38;31.00;98.70
25300;DHT22;13241;51.208;4.432;2022-07-24T12:23:10;31.00;98.60
25300;DHT22;13241;51.208;4.432;2022-07-24T12:25:38;31.00;98.80
25300;DHT22;13241;51.208;4.432;2022-07-24T12:28:14;30.90;98.70
25300;DHT22;13241;51.208;4.432;2022-07-24T12:30:46;30.90;98.90
25300;DHT22;13241;51.208;4.432;2022-07-24T12:36:00;31.20;98.70
25300;DHT22;13241;51.208;4.432;2022-07-24T12:41:16;31.30;98.40
25300;DHT22;13241;51.208;4.432;2022-07-24T12:43:56;31.10;98.40
25300;DHT22;13241;51.208;4.432;2022-07-24T12:46:40;31.40;98.40
25300;DHT22;13241;51.208;4.432;2022-07-24T12:54:31;31.50;98.10
25300;DHT22;13241;51.208;4.432;2022-07-24T12:57:12;31.50;98.20
25300;DHT22;13241;51.208;4.432;2022-07-24T12:59:47;31.50;97.70
25300;DHT22;13241;51.208;4.432;2022-07-24T13:02:22;31.60;97.90
25300;DHT22;13241;51.208;4.432;2022-07-24T13:04:57;31.70;97.80
25300;DHT22;13241;51.208;4.432;2022-07-24T13:07:25;31.70;97.90
25300;DHT22;13241;51.208;4.432;2022-07-24T13:09:53;31.70;97.60
25300;DHT22;13241;51.208;4.432;2022-07-24T13:12:21;31.80;97.60
25300;DHT22;13241;51.208;4.432;2022-07-24T13:14:50;31.90;97.30
25300;DHT22;13241;51.208;4.432;2022-07-24T13:17:18;32.00;97.30
25300;DHT22;13241;51.208;4.432;2022-07-24T13:19:47;32.00;97.50
25300;DHT22;13241;51.208;4.432;2022-07-24T13:22:15;32.10;98.00
25300;DHT22;13241;51.208;4.432;2022-07-24T13:24:43;32.10;97.20
25300;DHT22;13241;51.208;4.432;2022-07-24T13:27:11;32.20;97.10
25300;DHT22;13241;51.208;4.432;2022-07-24T13:29:41;32.20;97.30
25300;DHT22;13241;51.208;4.432;2022-07-24T13:32:08;32.40;96.90
25300;DHT22;13241;51.208;4.432;2022-07-24T13:34:35;32.90;96.90
25300;DHT22;13241;51.208;4.432;2022-07-24T13:37:04;33.90;95.60
25300;DHT22;13241;51.208;4.432;2022-07-24T13:39:33;34.60;94.40
25300;DHT22;13241;51.208;4.432;2022-07-24T13:42:02;35.40;93.50
25300;DHT22;13241;51.208;4.432;2022-07-24T13:44:29;36.00;92.30
25300;DHT22;13241;51.208;4.432;2022-07-24T13:46:56;36.10;91.80
25300;DHT22;13241;51.208;4.432;2022-07-24T13:49:24;36.10;91.40
25300;DHT22;13241;51.208;4.432;2022-07-24T13:51:51;36.60;90.90
25300;DHT22;13241;51.208;4.432;2022-07-24T13:54:18;37.20;90.10
25300;DHT22;13241;51.208;4.432;2022-07-24T13:56:45;37.60;89.20
25300;DHT22;13241;51.208;4.432;2022-07-24T13:59:12;37.80;87.60
25300;DHT22;13241;51.208;4.432;2022-07-24T14:01:39;38.20;86.30
25300;DHT22;13241;51.208;4.432;2022-07-24T14:04:06;38.60;85.40
25300;DHT22;13241;51.208;4.432;2022-07-24T14:06:54;39.00;83.80
25300;DHT22;13241;51.208;4.432;2022-07-24T14:09:21;39.00;82.50
25300;DHT22;13241;51.208;4.432;2022-07-24T14:11:49;39.10;80.90
25300;DHT22;13241;51.208;4.432;2022-07-24T14:14:17;39.20;80.20
25300;DHT22;13241;51.208;4.432;2022-07-24T14:16:44;39.30;80.40
25300;DHT22;13241;51.208;4.432;2022-07-24T14:19:11;39.70;77.80
25300;DHT22;13241;51.208;4.432;2022-07-24T14:21:37;39.80;77.20
25300;DHT22;13241;51.208;4.432;2022-07-24T14:24:06;40.00;76.20
25300;DHT22;13241;51.208;4.432;2022-07-24T14:26:44;40.10;75.50
25300;DHT22;13241;51.208;4.432;2022-07-24T14:29:12;40.50;75.10
25300;DHT22;13241;51.208;4.432;2022-07-24T14:31:39;40.80;73.70
25300;DHT22;13241;51.208;4.432;2022-07-24T14:34:06;41.10;71.90
25300;DHT22;13241;51.208;4.432;2022-07-24T14:36:34;41.10;71.20
25300;DHT22;13241;51.208;4.432;2022-07-24T14:39:01;41.30;70.70
25300;DHT22;13241;51.208;4.432;2022-07-24T14:41:28;41.40;69.70
25300;DHT22;13241;51.208;4.432;2022-07-24T14:43:54;41.30;68.80
25300;DHT22;13241;51.208;4.432;2022-07-24T14:46:21;41.30;70.10
25300;DHT22;13241;51.208;4.432;2022-07-24T14:48:48;40.90;69.40
25300;DHT22;13241;51.208;4.432;2022-07-24T14:51:15;41.00;70.60
25300;DHT22;13241;51.208;4.432;2022-07-24T14:53:42;41.20;68.70
25300;DHT22;13241;51.208;4.432;2022-07-24T14:56:09;41.30;69.40
25300;DHT22;13241;51.208;4.432;2022-07-24T14:58:36;41.50;68.70
25300;DHT22;13241;51.208;4.432;2022-07-24T15:01:03;41.80;67.80
25300;DHT22;13241;51.208;4.432;2022-07-24T15:03:30;42.40;66.90
25300;DHT22;13241;51.208;4.432;2022-07-24T15:05:57;42.50;65.70
25300;DHT22;13241;51.208;4.432;2022-07-24T15:08:24;42.50;65.30
25300;DHT22;13241;51.208;4.432;2022-07-24T15:10:51;42.70;64.90
25300;DHT22;13241;51.208;4.432;2022-07-24T15:13:18;42.90;64.10
25300;DHT22;13241;51.208;4.432;2022-07-24T15:15:45;43.10;64.70
25300;DHT22;13241;51.208;4.432;2022-07-24T15:18:12;43.30;63.70
25300;DHT22;13241;51.208;4.432;2022-07-24T15:20:39;43.50;62.90
25300;DHT22;13241;51.208;4.432;2022-07-24T15:23:05;43.50;62.40
25300;DHT22;13241;51.208;4.432;2022-07-24T15:25:33;43.50;63.00
25300;DHT22;13241;51.208;4.432;2022-07-24T15:28:00;43.80;61.70
25300;DHT22;13241;51.208;4.432;2022-07-24T15:30:27;44.10;61.10
25300;DHT22;13241;51.208;4.432;2022-07-24T15:32:58;44.30;61.30
25300;DHT22;13241;51.208;4.432;2022-07-24T15:35:29;44.50;60.90
25300;DHT22;13241;51.208;4.432;2022-07-24T15:37:57;44.40;59.00
25300;DHT22;13241;51.208;4.432;2022-07-24T15:40:24;43.90;58.90
25300;DHT22;13241;51.208;4.432;2022-07-24T15:42:54;43.60;59.90
25300;DHT22;13241;51.208;4.432;2022-07-24T15:45:21;43.50;59.80
25300;DHT22;13241;51.208;4.432;2022-07-24T15:47:49;43.70;59.40
25300;DHT22;13241;51.208;4.432;2022-07-24T15:50:16;44.10;59.00
25300;DHT22;13241;51.208;4.432;2022-07-24T15:52:43;44.20;58.00
25300;DHT22;13241;51.208;4.432;2022-07-24T15:55:10;43.80;59.20
25300;DHT22;13241;51.208;4.432;2022-07-24T15:57:46;43.60;59.80
25300;DHT22;13241;51.208;4.432;2022-07-24T16:00:15;44.20;59.00
25300;DHT22;13241;51.208;4.432;2022-07-24T16:02:43;44.60;58.30
25300;DHT22;13241;51.208;4.432;2022-07-24T16:05:10;44.60;58.70